createdAt,value
2022-09-11T00:00:54.196Z,18.10
2022-09-11T00:03:21.557Z,18.10
2022-09-11T00:05:48.392Z,18.10
2022-09-11T00:08:16.842Z,18.10
2022-09-11T00:10:44.482Z,18.10
2022-09-11T00:13:12.174Z,18.10
2022-09-11T00:15:39.742Z,18.10
2022-09-11T00:18:07.231Z,18.00
2022-09-11T00:20:34.505Z,18.00
2022-09-11T00:23:05.001Z,18.00
2022-09-11T00:25:34.981Z,18.00
2022-09-11T00:28:02.203Z,18.00
2022-09-11T00:30:29.196Z,18.00
2022-09-11T00:32:56.090Z,18.00
2022-09-11T00:35:22.705Z,18.00
2022-09-11T00:37:49.290Z,18.00
2022-09-11T00:40:17.196Z,17.90
2022-09-11T00:42:44.137Z,17.80
2022-09-11T00:45:28.619Z,17.80
2022-09-11T00:47:58.410Z,17.80
2022-09-11T00:50:26.876Z,17.80
2022-09-11T00:52:56.167Z,17.80
2022-09-11T00:55:27.215Z,17.80
2022-09-11T00:57:59.987Z,17.70
2022-09-11T01:00:26.602Z,17.70
2022-09-11T01:02:54.673Z,17.70
2022-09-11T01:05:24.835Z,17.60
2022-09-11T01:07:54.231Z,17.50
2022-09-11T01:10:25.620Z,17.50
2022-09-11T01:12:52.163Z,17.50
2022-09-11T01:15:33.459Z,17.60
2022-09-11T01:18:00.310Z,17.60
2022-09-11T01:20:32.852Z,17.50
2022-09-11T01:23:07.947Z,17.50
2022-09-11T01:25:46.831Z,17.50
2022-09-11T01:28:15.236Z,17.50
2022-09-11T01:30:46.600Z,17.50
2022-09-11T01:33:22.838Z,17.50
2022-09-11T01:36:03.537Z,17.50
2022-09-11T01:38:36.272Z,17.50
2022-09-11T01:41:08.939Z,17.50
2022-09-11T01:43:42.574Z,17.40
2022-09-11T01:46:11.904Z,17.40
2022-09-11T01:48:41.336Z,17.30
2022-09-11T01:51:09.668Z,17.30
2022-09-11T01:53:37.683Z,17.40
2022-09-11T01:56:07.990Z,17.40
2022-09-11T01:58:37.686Z,17.40
2022-09-11T02:01:17.909Z,17.40
2022-09-11T02:03:48.096Z,17.40
2022-09-11T02:06:17.978Z,17.40
2022-09-11T02:08:56.252Z,17.40
2022-09-11T02:11:24.596Z,17.40
2022-09-11T02:13:58.704Z,17.30
2022-09-11T02:16:35.423Z,17.30
2022-09-11T02:19:03.995Z,17.30
2022-09-11T02:21:31.111Z,17.30
2022-09-11T02:23:57.923Z,17.30
2022-09-11T02:26:25.821Z,17.30
2022-09-11T02:28:53.433Z,17.30
2022-09-11T02:31:20.956Z,17.30
2022-09-11T02:33:47.939Z,17.20
2022-09-11T02:36:34.644Z,17.20
2022-09-11T02:39:19.074Z,17.20
2022-09-11T02:42:04.758Z,17.10
2022-09-11T02:44:45.152Z,17.10
2022-09-11T02:47:19.001Z,17.10
2022-09-11T02:49:51.686Z,17.00
2022-09-11T02:52:35.935Z,17.00
2022-09-11T02:55:08.051Z,17.00
2022-09-11T02:57:34.733Z,17.00
2022-09-11T03:00:02.371Z,17.00
2022-09-11T03:02:31.488Z,17.00
2022-09-11T03:04:59.010Z,17.00
2022-09-11T03:07:25.947Z,17.00
2022-09-11T03:09:53.040Z,17.00
2022-09-11T03:12:22.286Z,16.90
2022-09-11T03:14:50.892Z,16.90
2022-09-11T03:17:17.507Z,16.90
2022-09-11T03:19:44.158Z,16.90
2022-09-11T03:22:10.822Z,16.90
2022-09-11T03:24:39.509Z,16.90
2022-09-11T03:27:06.902Z,16.90
2022-09-11T03:29:35.023Z,16.80
2022-09-11T03:32:01.878Z,16.80
2022-09-11T03:34:29.655Z,16.80
2022-09-11T03:36:56.589Z,16.80
2022-09-11T03:39:24.450Z,16.80
2022-09-11T03:41:51.394Z,16.70
2022-09-11T03:44:17.999Z,16.70
2022-09-11T03:46:44.914Z,16.70
2022-09-11T03:49:11.515Z,16.70
2022-09-11T03:51:38.558Z,16.70
2022-09-11T03:54:05.309Z,16.70
2022-09-11T03:56:32.455Z,16.70
2022-09-11T03:59:02.397Z,16.70
2022-09-11T04:01:30.308Z,16.70
2022-09-11T04:03:57.150Z,16.60
2022-09-11T04:06:35.112Z,16.60
2022-09-11T04:09:03.563Z,16.60
2022-09-11T04:11:35.470Z,16.60
2022-09-11T04:14:04.443Z,16.60
2022-09-11T04:16:32.916Z,16.50
2022-09-11T04:19:01.031Z,16.50
2022-09-11T04:21:28.216Z,16.50
2022-09-11T04:24:00.081Z,16.50
2022-09-11T04:26:29.215Z,16.50
2022-09-11T04:29:01.261Z,16.50
2022-09-11T04:31:28.655Z,16.50
2022-09-11T04:33:58.025Z,16.50
2022-09-11T04:36:29.854Z,16.50
2022-09-11T04:38:57.826Z,16.40
2022-09-11T04:41:25.313Z,16.40
2022-09-11T04:43:58.258Z,16.40
2022-09-11T04:46:27.947Z,16.40
2022-09-11T04:48:56.035Z,16.40
2022-09-11T04:51:25.919Z,16.40
2022-09-11T04:53:53.242Z,16.40
2022-09-11T04:56:21.214Z,16.40
2022-09-11T04:58:55.825Z,16.30
2022-09-11T05:01:24.991Z,16.30
2022-09-11T05:03:56.126Z,16.30
2022-09-11T05:06:22.816Z,16.20
2022-09-11T05:08:50.873Z,16.20
2022-09-11T05:11:18.907Z,16.20
2022-09-11T05:13:46.493Z,16.20
2022-09-11T05:16:15.489Z,16.20
2022-09-11T05:18:43.673Z,16.10
2022-09-11T05:21:15.369Z,16.10
2022-09-11T05:23:42.620Z,16.10
2022-09-11T05:26:13.823Z,16.20
2022-09-11T05:28:40.418Z,16.20
2022-09-11T05:31:11.548Z,16.20
2022-09-11T05:33:38.626Z,16.20
2022-09-11T05:36:06.173Z,16.20
2022-09-11T05:38:34.636Z,16.20
2022-09-11T05:41:01.856Z,16.30
2022-09-11T05:43:29.192Z,16.30
2022-09-11T05:45:56.840Z,16.30
2022-09-11T05:48:27.667Z,16.40
2022-09-11T05:50:55.226Z,16.40
2022-09-11T05:53:22.915Z,16.40
2022-09-11T05:55:51.617Z,16.50
2022-09-11T05:58:19.278Z,16.40
2022-09-11T06:00:47.316Z,16.50
2022-09-11T06:03:15.681Z,16.50
2022-09-11T06:05:43.443Z,16.50
2022-09-11T06:08:11.515Z,16.50
2022-09-11T06:10:48.238Z,16.50
2022-09-11T06:13:18.512Z,16.50
2022-09-11T06:15:47.398Z,16.50
2022-09-11T06:18:15.194Z,16.60
2022-09-11T06:20:42.274Z,16.60
2022-09-11T06:23:15.657Z,16.70
2022-09-11T06:25:42.638Z,16.70
2022-09-11T06:28:09.211Z,16.70
2022-09-11T06:30:35.926Z,16.70
2022-09-11T06:33:03.611Z,16.80
2022-09-11T06:35:30.247Z,16.80
2022-09-11T06:37:57.654Z,16.80
2022-09-11T06:40:25.073Z,16.80
2022-09-11T06:42:52.387Z,16.90
2022-09-11T06:45:19.506Z,16.90
2022-09-11T06:47:47.275Z,16.90
2022-09-11T06:50:14.473Z,17.00
2022-09-11T06:52:59.967Z,17.00
2022-09-11T06:55:30.327Z,17.00
2022-09-11T06:58:04.103Z,17.10
2022-09-11T07:00:31.810Z,17.10
2022-09-11T07:02:58.430Z,17.10
2022-09-11T07:05:25.792Z,17.20
2022-09-11T07:07:53.503Z,17.20
2022-09-11T07:10:20.209Z,17.30
2022-09-11T07:12:55.727Z,17.40
2022-09-11T07:15:22.398Z,17.40
2022-09-11T07:17:49.132Z,17.40
2022-09-11T07:20:17.557Z,17.40
2022-09-11T07:22:45.417Z,17.40
2022-09-11T07:25:14.067Z,17.40
2022-09-11T07:27:42.202Z,17.50
2022-09-11T07:30:10.652Z,17.50
2022-09-11T07:32:39.410Z,17.60
2022-09-11T07:35:07.085Z,17.70
2022-09-11T07:37:34.635Z,17.70
2022-09-11T07:40:01.515Z,17.70
2022-09-11T07:42:29.298Z,17.80
2022-09-11T07:44:57.316Z,17.90
2022-09-11T07:47:25.350Z,17.90
2022-09-11T07:49:52.718Z,18.00
2022-09-11T07:52:20.499Z,18.00
2022-09-11T07:54:53.745Z,18.10
2022-09-11T07:57:24.271Z,18.10
2022-09-11T07:59:51.578Z,18.20
2022-09-11T08:02:19.997Z,18.20
2022-09-11T08:04:46.902Z,18.30
2022-09-11T08:07:13.819Z,18.30
2022-09-11T08:09:40.743Z,18.40
2022-09-11T08:12:08.186Z,18.40
2022-09-11T08:14:36.953Z,18.50
2022-09-11T08:17:20.098Z,18.50
2022-09-11T08:19:47.623Z,18.60
2022-09-11T08:22:14.390Z,18.70
2022-09-11T08:24:44.557Z,18.70
2022-09-11T08:27:14.259Z,18.80
2022-09-11T08:29:42.467Z,18.80
2022-09-11T08:32:09.917Z,18.90
2022-09-11T08:34:38.193Z,19.00
2022-09-11T08:37:04.928Z,19.10
2022-09-11T08:39:34.022Z,19.20
2022-09-11T08:42:05.961Z,19.30
2022-09-11T08:44:56.423Z,19.50
2022-09-11T08:47:38.880Z,19.60
2022-09-11T08:50:12.870Z,19.70
2022-09-11T08:52:39.511Z,19.80
2022-09-11T08:55:13.085Z,20.00
2022-09-11T08:57:39.749Z,20.00
2022-09-11T09:00:09.618Z,20.10
2022-09-11T09:03:14.386Z,20.20
2022-09-11T09:06:06.143Z,20.30
2022-09-11T09:08:45.119Z,20.30
2022-09-11T09:11:19.895Z,20.30
2022-09-11T09:14:05.721Z,20.40
2022-09-11T09:16:43.362Z,20.40
2022-09-11T09:19:29.693Z,20.40
2022-09-11T09:21:59.163Z,20.40
2022-09-11T09:24:28.219Z,20.50
2022-09-11T09:26:56.210Z,20.60
2022-09-11T09:29:25.424Z,20.60
2022-09-11T09:32:07.963Z,20.60
2022-09-11T09:34:38.399Z,20.70
2022-09-11T09:37:13.893Z,20.70
2022-09-11T09:39:40.910Z,20.80
2022-09-11T09:42:14.561Z,20.80
2022-09-11T09:44:42.805Z,20.90
2022-09-11T09:47:13.359Z,20.90
2022-09-11T09:49:40.514Z,21.00
2022-09-11T09:52:15.027Z,21.10
2022-09-11T09:54:41.678Z,21.10
2022-09-11T09:57:13.635Z,21.20
2022-09-11T09:59:42.193Z,21.20
2022-09-11T10:02:09.117Z,21.30
2022-09-11T10:04:35.838Z,21.40
2022-09-11T10:07:13.882Z,21.50
2022-09-11T10:09:52.100Z,21.60
2022-09-11T10:12:22.331Z,21.70
2022-09-11T10:14:59.161Z,21.80
2022-09-11T10:17:32.316Z,21.90
2022-09-11T10:20:14.019Z,21.90
2022-09-11T10:22:40.578Z,21.90
2022-09-11T10:25:13.447Z,21.90
2022-09-11T10:27:52.026Z,21.80
2022-09-11T10:30:33.886Z,21.80
2022-09-11T10:33:03.684Z,22.00
2022-09-11T10:35:31.331Z,22.20
2022-09-11T10:38:18.218Z,22.30
2022-09-11T10:41:03.361Z,22.30
2022-09-11T10:43:40.578Z,22.40
2022-09-11T10:46:22.544Z,22.50
2022-09-11T10:48:55.148Z,22.50
2022-09-11T10:51:23.056Z,22.50
2022-09-11T10:54:05.538Z,22.40
2022-09-11T10:56:35.495Z,22.30
2022-09-11T10:59:05.383Z,22.20
2022-09-11T11:01:32.994Z,22.10
2022-09-11T11:03:59.688Z,22.00
2022-09-11T11:06:51.439Z,22.00
2022-09-11T11:09:27.714Z,22.10
2022-09-11T11:12:17.427Z,22.10
2022-09-11T11:15:10.490Z,22.10
2022-09-11T11:17:37.071Z,22.10
2022-09-11T11:20:07.466Z,22.20
2022-09-11T11:22:56.844Z,22.20
2022-09-11T11:25:23.909Z,22.20
2022-09-11T11:27:56.538Z,22.20
2022-09-11T11:30:45.662Z,22.20
2022-09-11T11:33:15.279Z,22.30
2022-09-11T11:36:15.328Z,22.30
2022-09-11T11:38:48.393Z,22.30
2022-09-11T11:41:27.211Z,22.30
2022-09-11T11:43:54.048Z,22.30
2022-09-11T11:46:26.668Z,22.30
2022-09-11T11:49:04.648Z,22.30
2022-09-11T11:51:34.454Z,22.30
2022-09-11T11:54:07.554Z,22.30
2022-09-11T11:56:34.316Z,22.40
2022-09-11T11:59:11.306Z,22.30
2022-09-11T12:01:44.959Z,22.40
2022-09-11T12:04:30.519Z,22.40
2022-09-11T12:06:58.524Z,22.30
2022-09-11T12:09:30.385Z,22.30
2022-09-11T12:12:04.506Z,22.40
2022-09-11T12:14:34.102Z,22.50
2022-09-11T12:17:36.765Z,22.60
2022-09-11T12:20:09.400Z,22.70
2022-09-11T12:22:46.759Z,22.80
2022-09-11T12:25:19.359Z,22.90
2022-09-11T12:27:45.953Z,23.10
2022-09-11T12:30:18.700Z,23.40
2022-09-11T12:32:45.313Z,23.50
2022-09-11T12:35:32.160Z,23.70
2022-09-11T12:38:04.276Z,23.90
2022-09-11T12:40:33.844Z,24.10
2022-09-11T12:43:20.327Z,24.10
2022-09-11T12:45:49.861Z,24.20
2022-09-11T12:48:17.670Z,24.20
2022-09-11T12:50:50.921Z,24.40
2022-09-11T12:53:23.482Z,24.70
2022-09-11T12:55:50.038Z,25.10
2022-09-11T12:58:19.640Z,25.40
2022-09-11T13:00:48.216Z,25.60
2022-09-11T13:03:17.234Z,26.00
2022-09-11T13:05:45.282Z,26.70
2022-09-11T13:08:17.154Z,27.50
2022-09-11T13:10:43.871Z,28.30
2022-09-11T13:13:40.463Z,28.80
2022-09-11T13:16:17.715Z,28.70
2022-09-11T13:18:44.664Z,28.30
2022-09-11T13:21:11.390Z,28.00
2022-09-11T13:23:38.183Z,28.00
2022-09-11T13:26:06.218Z,28.30
2022-09-11T13:28:37.151Z,28.60
2022-09-11T13:31:05.002Z,28.70
2022-09-11T13:33:32.241Z,29.10
2022-09-11T13:36:02.463Z,30.10
2022-09-11T13:38:34.163Z,31.30
2022-09-11T13:41:06.900Z,32.50
2022-09-11T13:43:44.674Z,33.70
2022-09-11T13:46:14.407Z,34.80
2022-09-11T13:48:41.465Z,35.90
2022-09-11T13:51:12.779Z,36.80
2022-09-11T13:53:39.776Z,37.50
2022-09-11T13:56:07.379Z,38.10
2022-09-11T13:58:39.551Z,38.50
2022-09-11T14:01:14.214Z,38.80
2022-09-11T14:03:45.902Z,39.20
2022-09-11T14:06:17.460Z,39.80
2022-09-11T14:08:49.882Z,40.10
2022-09-11T14:11:30.306Z,40.50
2022-09-11T14:13:59.612Z,40.60
2022-09-11T14:16:31.465Z,39.90
2022-09-11T14:19:01.507Z,39.10
2022-09-11T14:21:32.537Z,38.70
2022-09-11T14:23:59.495Z,38.70
2022-09-11T14:26:33.723Z,38.50
2022-09-11T14:29:24.787Z,38.50
2022-09-11T14:31:54.732Z,39.10
2022-09-11T14:34:21.887Z,39.20
2022-09-11T14:36:53.020Z,38.50
2022-09-11T14:39:28.321Z,38.80
2022-09-11T14:41:55.639Z,39.30
2022-09-11T14:44:23.673Z,40.00
2022-09-11T14:46:50.221Z,39.70
2022-09-11T14:49:16.833Z,39.30
2022-09-11T14:51:43.794Z,39.10
2022-09-11T14:54:14.035Z,39.40
2022-09-11T14:56:40.839Z,39.60
2022-09-11T14:59:07.411Z,40.30
2022-09-11T15:01:35.533Z,41.00
2022-09-11T15:04:03.177Z,41.60
2022-09-11T15:06:29.922Z,41.40
2022-09-11T15:08:56.636Z,40.70
2022-09-11T15:11:23.228Z,39.60
2022-09-11T15:14:13.361Z,38.50
2022-09-11T15:16:36.420Z,37.50
2022-09-11T15:19:03.318Z,36.70
2022-09-11T15:21:33.004Z,36.20
2022-09-11T15:24:04.504Z,35.60
2022-09-11T15:26:31.967Z,34.90
2022-09-11T15:28:58.613Z,34.30
2022-09-11T15:31:25.246Z,34.00
2022-09-11T15:33:52.185Z,33.70
2022-09-11T15:36:19.281Z,33.50
2022-09-11T15:38:53.933Z,33.30
2022-09-11T15:41:21.996Z,33.20
2022-09-11T15:43:50.381Z,33.00
2022-09-11T15:46:18.257Z,32.90
2022-09-11T15:48:45.498Z,32.70
2022-09-11T15:51:19.333Z,32.60
2022-09-11T15:53:45.981Z,32.50
2022-09-11T15:56:15.131Z,32.40
2022-09-11T15:58:42.498Z,32.30
2022-09-11T16:01:17.686Z,32.30
2022-09-11T16:03:44.461Z,32.10
2022-09-11T16:06:11.293Z,31.90
2022-09-11T16:08:39.658Z,31.70
2022-09-11T16:11:06.490Z,31.60
2022-09-11T16:13:33.689Z,31.40
2022-09-11T16:16:04.394Z,31.10
2022-09-11T16:18:31.154Z,31.00
2022-09-11T16:20:58.282Z,30.90
2022-09-11T16:23:25.662Z,30.80
2022-09-11T16:25:52.655Z,30.60
2022-09-11T16:28:19.339Z,30.30
2022-09-11T16:30:49.549Z,30.10
2022-09-11T16:33:17.811Z,30.00
2022-09-11T16:35:45.180Z,30.00
2022-09-11T16:38:11.773Z,30.00
2022-09-11T16:40:38.950Z,30.30
2022-09-11T16:43:05.612Z,30.60
2022-09-11T16:45:35.531Z,30.80
2022-09-11T16:48:04.828Z,30.60
2022-09-11T16:50:31.485Z,30.20
2022-09-11T16:52:58.236Z,29.80
2022-09-11T16:55:25.330Z,29.40
2022-09-11T16:57:51.936Z,29.10
2022-09-11T17:00:18.503Z,28.70
2022-09-11T17:02:45.364Z,28.50
2022-09-11T17:05:12.369Z,28.20
2022-09-11T17:07:39.268Z,28.00
2022-09-11T17:10:06.004Z,27.80
2022-09-11T17:12:32.651Z,27.60
2022-09-11T17:14:59.375Z,27.40
2022-09-11T17:17:25.950Z,27.20
2022-09-11T17:19:52.803Z,27.00
2022-09-11T17:22:19.351Z,26.90
2022-09-11T17:24:45.890Z,26.80
2022-09-11T17:27:12.571Z,26.70
2022-09-11T17:29:44.265Z,26.50
2022-09-11T17:32:27.137Z,26.40
2022-09-11T17:34:54.362Z,26.30
2022-09-11T17:37:21.002Z,26.10
2022-09-11T17:39:47.597Z,26.00
2022-09-11T17:42:14.203Z,25.80
2022-09-11T17:44:43.446Z,25.70
2022-09-11T17:47:10.030Z,25.60
2022-09-11T17:49:36.589Z,25.50
2022-09-11T17:52:03.202Z,25.40
2022-09-11T17:54:29.747Z,25.30
2022-09-11T17:56:57.397Z,25.20
2022-09-11T17:59:23.949Z,25.00
2022-09-11T18:01:51.121Z,24.90
2022-09-11T18:04:18.396Z,24.80
2022-09-11T18:06:45.293Z,24.80
2022-09-11T18:09:16.113Z,24.60
2022-09-11T18:11:43.719Z,24.50
2022-09-11T18:14:11.005Z,24.40
2022-09-11T18:16:37.957Z,24.30
2022-09-11T18:19:05.024Z,24.20
2022-09-11T18:21:33.138Z,24.20
2022-09-11T18:24:03.529Z,24.00
2022-09-11T18:26:31.483Z,24.00
2022-09-11T18:29:00.024Z,23.90
2022-09-11T18:31:30.142Z,23.90
2022-09-11T18:33:59.933Z,23.80
2022-09-11T18:36:30.771Z,23.70
2022-09-11T18:39:00.110Z,23.70
2022-09-11T18:41:27.152Z,23.60
2022-09-11T18:43:54.858Z,23.60
2022-09-11T18:46:22.041Z,23.50
2022-09-11T18:48:50.272Z,23.40
2022-09-11T18:51:17.358Z,23.40
2022-09-11T18:53:46.609Z,23.30
2022-09-11T18:56:13.401Z,23.20
2022-09-11T18:58:40.337Z,23.10
2022-09-11T19:01:08.481Z,23.10
2022-09-11T19:03:35.301Z,23.00
2022-09-11T19:06:06.468Z,23.00
2022-09-11T19:08:33.308Z,23.00
2022-09-11T19:11:00.323Z,22.90
2022-09-11T19:13:26.954Z,22.90
2022-09-11T19:15:57.450Z,22.80
2022-09-11T19:18:24.224Z,22.80
2022-09-11T19:21:03.658Z,22.70
2022-09-11T19:23:31.385Z,22.70
2022-09-11T19:26:07.363Z,22.60
2022-09-11T19:28:37.644Z,22.50
2022-09-11T19:31:05.449Z,22.50
2022-09-11T19:33:32.989Z,22.50
2022-09-11T19:36:03.835Z,22.40
2022-09-11T19:38:32.419Z,22.40
2022-09-11T19:41:00.685Z,22.30
2022-09-11T19:43:31.108Z,22.30
2022-09-11T19:46:01.486Z,22.20
2022-09-11T19:48:28.120Z,22.10
2022-09-11T19:50:54.642Z,22.10
2022-09-11T19:53:21.224Z,22.10
2022-09-11T19:55:52.291Z,22.10
2022-09-11T19:58:23.358Z,22.00
2022-09-11T20:00:50.770Z,22.00
2022-09-11T20:03:18.056Z,21.90
2022-09-11T20:05:45.047Z,21.90
2022-09-11T20:08:16.074Z,21.80
2022-09-11T20:10:45.356Z,21.80
2022-09-11T20:13:12.502Z,21.80
2022-09-11T20:15:39.999Z,21.70
2022-09-11T20:18:11.297Z,21.70
2022-09-11T20:20:41.179Z,21.60
2022-09-11T20:23:10.532Z,21.60
2022-09-11T20:25:37.163Z,21.50
2022-09-11T20:28:03.876Z,21.40
2022-09-11T20:30:32.494Z,21.50
2022-09-11T20:33:02.178Z,21.40
2022-09-11T20:35:28.710Z,21.40
2022-09-11T20:37:55.314Z,21.30
2022-09-11T20:40:21.873Z,21.30
2022-09-11T20:42:48.424Z,21.20
2022-09-11T20:45:15.085Z,21.20
2022-09-11T20:47:41.638Z,21.10
2022-09-11T20:50:08.741Z,21.00
2022-09-11T20:52:39.310Z,21.00
2022-09-11T20:55:06.865Z,21.00
2022-09-11T20:57:33.470Z,20.90
2022-09-11T21:00:00.780Z,20.90
2022-09-11T21:02:27.610Z,20.80
2022-09-11T21:04:54.135Z,20.80
2022-09-11T21:07:20.853Z,20.80
2022-09-11T21:09:47.798Z,20.80
2022-09-11T21:12:14.417Z,20.70
2022-09-11T21:14:41.618Z,20.70
2022-09-11T21:17:08.178Z,20.60
2022-09-11T21:19:34.749Z,20.60
2022-09-11T21:22:01.334Z,20.50
2022-09-11T21:24:27.874Z,20.50
2022-09-11T21:26:54.478Z,20.40
2022-09-11T21:29:21.110Z,20.30
2022-09-11T21:31:47.775Z,20.20
2022-09-11T21:34:14.510Z,20.10
2022-09-11T21:36:42.359Z,20.10
2022-09-11T21:39:08.991Z,20.10
2022-09-11T21:41:35.578Z,20.10
2022-09-11T21:44:02.326Z,20.00
2022-09-11T21:46:28.936Z,20.00
2022-09-11T21:48:55.494Z,19.90
2022-09-11T21:51:22.182Z,19.90
2022-09-11T21:53:49.669Z,19.80
2022-09-11T21:56:20.716Z,19.80
2022-09-11T21:58:48.011Z,19.80
2022-09-11T22:01:14.807Z,19.80
2022-09-11T22:03:41.548Z,19.80
2022-09-11T22:06:10.103Z,19.80
2022-09-11T22:08:37.862Z,19.80
2022-09-11T22:11:04.539Z,19.70
2022-09-11T22:13:31.911Z,19.70
2022-09-11T22:15:59.568Z,19.70
2022-09-11T22:18:26.147Z,19.60
2022-09-11T22:20:52.691Z,19.60
2022-09-11T22:23:22.677Z,19.60
2022-09-11T22:25:56.717Z,19.60
2022-09-11T22:28:23.257Z,19.60
2022-09-11T22:30:49.812Z,19.50
2022-09-11T22:33:16.361Z,19.50
2022-09-11T22:35:45.667Z,19.50
2022-09-11T22:38:15.488Z,19.40
2022-09-11T22:40:42.134Z,19.40
2022-09-11T22:43:08.776Z,19.40
2022-09-11T22:45:35.410Z,19.30
2022-09-11T22:48:02.698Z,19.30
2022-09-11T22:50:29.404Z,19.20
2022-09-11T22:52:55.968Z,19.20
2022-09-11T22:55:22.519Z,19.20
2022-09-11T22:57:49.086Z,19.20
2022-09-11T23:00:15.763Z,19.20
2022-09-11T23:02:42.438Z,19.10
2022-09-11T23:05:27.930Z,19.10
2022-09-11T23:07:54.618Z,19.10
2022-09-11T23:10:23.361Z,19.00
2022-09-11T23:12:50.862Z,19.00
2022-09-11T23:15:17.823Z,19.00
2022-09-11T23:17:44.655Z,19.00
2022-09-11T23:20:11.653Z,18.90
2022-09-11T23:22:38.302Z,18.90
2022-09-11T23:25:05.275Z,18.90
2022-09-11T23:27:32.925Z,18.80
2022-09-11T23:29:59.533Z,18.80
2022-09-11T23:32:26.100Z,18.80
2022-09-11T23:34:52.674Z,18.80
2022-09-11T23:37:19.282Z,18.70
2022-09-11T23:39:46.623Z,18.70
2022-09-11T23:42:13.313Z,18.70
2022-09-11T23:44:39.883Z,18.60
2022-09-11T23:47:06.877Z,18.60
2022-09-11T23:49:36.310Z,18.60
2022-09-11T23:52:04.031Z,18.60
2022-09-11T23:54:30.582Z,18.60
2022-09-11T23:56:57.383Z,18.50
2022-09-11T23:59:23.919Z,18.50
